sensor_id;sensor_type;location;lat;lon;timestamp;P1;durP1;ratioP1;P2;durP2;ratioP2
69030;SDS011;56083;48.774;8.942;2023-02-28T00:01:29;7.93;;;2.63;;
69030;SDS011;56083;48.774;8.942;2023-02-28T00:03:54;14.30;;;3.00;;
69030;SDS011;56083;48.774;8.942;2023-02-28T00:06:20;7.20;;;3.10;;
69030;SDS011;56083;48.774;8.942;2023-02-28T00:08:46;5.40;;;2.60;;
69030;SDS011;56083;48.774;8.942;2023-02-28T00:11:13;8.05;;;2.83;;
69030;SDS011;56083;48.774;8.942;2023-02-28T00:13:41;6.85;;;2.80;;
69030;SDS011;56083;48.774;8.942;2023-02-28T00:16:12;6.10;;;2.75;;
69030;SDS011;56083;48.774;8.942;2023-02-28T00:18:43;7.07;;;2.83;;
69030;SDS011;56083;48.774;8.942;2023-02-28T00:21:09;7.80;;;2.78;;
69030;SDS011;56083;48.774;8.942;2023-02-28T00:23:35;7.90;;;2.90;;
69030;SDS011;56083;48.774;8.942;2023-02-28T00:26:01;6.63;;;2.72;;
69030;SDS011;56083;48.774;8.942;2023-02-28T00:28:27;5.97;;;2.60;;
69030;SDS011;56083;48.774;8.942;2023-02-28T00:30:53;5.57;;;2.60;;
69030;SDS011;56083;48.774;8.942;2023-02-28T00:33:19;11.35;;;2.88;;
69030;SDS011;56083;48.774;8.942;2023-02-28T00:35:44;7.90;;;3.17;;
69030;SDS011;56083;48.774;8.942;2023-02-28T00:38:14;6.78;;;3.40;;
69030;SDS011;56083;48.774;8.942;2023-02-28T00:40:40;8.35;;;3.10;;
69030;SDS011;56083;48.774;8.942;2023-02-28T00:43:05;7.20;;;2.80;;
69030;SDS011;56083;48.774;8.942;2023-02-28T00:45:31;11.20;;;3.08;;
69030;SDS011;56083;48.774;8.942;2023-02-28T00:47:57;7.25;;;3.00;;
69030;SDS011;56083;48.774;8.942;2023-02-28T00:50:22;8.70;;;3.10;;
69030;SDS011;56083;48.774;8.942;2023-02-28T00:52:48;8.73;;;2.97;;
69030;SDS011;56083;48.774;8.942;2023-02-28T00:55:13;6.20;;;2.80;;
69030;SDS011;56083;48.774;8.942;2023-02-28T00:57:39;6.40;;;3.00;;
69030;SDS011;56083;48.774;8.942;2023-02-28T01:00:05;5.78;;;3.10;;
69030;SDS011;56083;48.774;8.942;2023-02-28T01:02:32;7.75;;;3.13;;
69030;SDS011;56083;48.774;8.942;2023-02-28T01:04:58;6.35;;;3.28;;
69030;SDS011;56083;48.774;8.942;2023-02-28T01:07:23;8.32;;;3.28;;
69030;SDS011;56083;48.774;8.942;2023-02-28T01:09:49;12.02;;;3.25;;
69030;SDS011;56083;48.774;8.942;2023-02-28T01:12:15;9.70;;;3.47;;
69030;SDS011;56083;48.774;8.942;2023-02-28T01:14:41;5.75;;;3.25;;
69030;SDS011;56083;48.774;8.942;2023-02-28T01:17:07;8.35;;;3.42;;
69030;SDS011;56083;48.774;8.942;2023-02-28T01:19:33;6.70;;;3.40;;
69030;SDS011;56083;48.774;8.942;2023-02-28T01:22:00;6.88;;;3.25;;
69030;SDS011;56083;48.774;8.942;2023-02-28T01:24:30;8.77;;;3.72;;
69030;SDS011;56083;48.774;8.942;2023-02-28T01:26:56;8.85;;;3.72;;
69030;SDS011;56083;48.774;8.942;2023-02-28T01:29:21;10.07;;;3.70;;
69030;SDS011;56083;48.774;8.942;2023-02-28T01:31:47;10.45;;;3.95;;
69030;SDS011;56083;48.774;8.942;2023-02-28T01:34:12;9.98;;;4.03;;
69030;SDS011;56083;48.774;8.942;2023-02-28T01:36:38;7.88;;;3.67;;
69030;SDS011;56083;48.774;8.942;2023-02-28T01:39:04;10.18;;;4.00;;
69030;SDS011;56083;48.774;8.942;2023-02-28T01:41:30;6.80;;;3.65;;
69030;SDS011;56083;48.774;8.942;2023-02-28T01:44:03;7.75;;;3.70;;
69030;SDS011;56083;48.774;8.942;2023-02-28T01:46:31;8.00;;;3.90;;
69030;SDS011;56083;48.774;8.942;2023-02-28T01:51:31;8.90;;;4.25;;
69030;SDS011;56083;48.774;8.942;2023-02-28T01:54:02;10.45;;;4.20;;
69030;SDS011;56083;48.774;8.942;2023-02-28T01:56:38;10.10;;;3.92;;
69030;SDS011;56083;48.774;8.942;2023-02-28T01:59:12;9.07;;;4.32;;
69030;SDS011;56083;48.774;8.942;2023-02-28T02:01:50;9.57;;;4.20;;
69030;SDS011;56083;48.774;8.942;2023-02-28T02:04:16;11.45;;;4.10;;
69030;SDS011;56083;48.774;8.942;2023-02-28T02:06:43;8.05;;;4.75;;
69030;SDS011;56083;48.774;8.942;2023-02-28T02:09:11;9.25;;;4.22;;
69030;SDS011;56083;48.774;8.942;2023-02-28T02:11:37;9.13;;;4.15;;
69030;SDS011;56083;48.774;8.942;2023-02-28T02:17:10;9.57;;;4.75;;
69030;SDS011;56083;48.774;8.942;2023-02-28T02:20:13;10.05;;;4.78;;
69030;SDS011;56083;48.774;8.942;2023-02-28T02:28:43;10.57;;;4.50;;
69030;SDS011;56083;48.774;8.942;2023-02-28T02:36:58;9.57;;;4.95;;
69030;SDS011;56083;48.774;8.942;2023-02-28T02:40:00;7.82;;;4.90;;
69030;SDS011;56083;48.774;8.942;2023-02-28T02:42:50;10.50;;;5.13;;
69030;SDS011;56083;48.774;8.942;2023-02-28T02:45:25;12.27;;;5.30;;
69030;SDS011;56083;48.774;8.942;2023-02-28T02:48:02;9.77;;;4.80;;
69030;SDS011;56083;48.774;8.942;2023-02-28T02:50:36;11.38;;;4.95;;
69030;SDS011;56083;48.774;8.942;2023-02-28T02:53:04;13.63;;;4.78;;
69030;SDS011;56083;48.774;8.942;2023-02-28T02:55:33;12.63;;;4.90;;
69030;SDS011;56083;48.774;8.942;2023-02-28T02:58:02;9.02;;;4.95;;
69030;SDS011;56083;48.774;8.942;2023-02-28T03:00:37;9.38;;;5.40;;
69030;SDS011;56083;48.774;8.942;2023-02-28T03:03:09;8.40;;;4.70;;
69030;SDS011;56083;48.774;8.942;2023-02-28T03:05:39;11.13;;;5.30;;
69030;SDS011;56083;48.774;8.942;2023-02-28T03:08:09;10.40;;;5.28;;
69030;SDS011;56083;48.774;8.942;2023-02-28T03:10:40;10.55;;;4.97;;
69030;SDS011;56083;48.774;8.942;2023-02-28T03:24:07;10.90;;;4.90;;
69030;SDS011;56083;48.774;8.942;2023-02-28T03:26:37;9.75;;;5.10;;
69030;SDS011;56083;48.774;8.942;2023-02-28T03:31:47;8.88;;;5.35;;
69030;SDS011;56083;48.774;8.942;2023-02-28T03:34:29;10.73;;;5.22;;
69030;SDS011;56083;48.774;8.942;2023-02-28T03:37:14;9.68;;;5.20;;
69030;SDS011;56083;48.774;8.942;2023-02-28T03:39:45;10.75;;;5.00;;
69030;SDS011;56083;48.774;8.942;2023-02-28T03:42:19;16.80;;;5.32;;
69030;SDS011;56083;48.774;8.942;2023-02-28T03:44:49;11.73;;;5.10;;
69030;SDS011;56083;48.774;8.942;2023-02-28T03:47:21;11.75;;;5.70;;
69030;SDS011;56083;48.774;8.942;2023-02-28T03:49:55;13.85;;;5.28;;
69030;SDS011;56083;48.774;8.942;2023-02-28T03:52:44;10.93;;;4.95;;
69030;SDS011;56083;48.774;8.942;2023-02-28T03:57:59;8.52;;;5.18;;
69030;SDS011;56083;48.774;8.942;2023-02-28T04:00:52;10.75;;;5.25;;
69030;SDS011;56083;48.774;8.942;2023-02-28T04:03:32;12.63;;;5.90;;
69030;SDS011;56083;48.774;8.942;2023-02-28T04:05:58;9.57;;;5.47;;
69030;SDS011;56083;48.774;8.942;2023-02-28T04:08:24;10.25;;;5.50;;
69030;SDS011;56083;48.774;8.942;2023-02-28T04:10:52;11.68;;;5.35;;
69030;SDS011;56083;48.774;8.942;2023-02-28T04:13:22;10.87;;;5.73;;
69030;SDS011;56083;48.774;8.942;2023-02-28T04:15:48;12.35;;;6.15;;
69030;SDS011;56083;48.774;8.942;2023-02-28T04:18:13;12.60;;;5.43;;
69030;SDS011;56083;48.774;8.942;2023-02-28T04:20:39;10.55;;;5.80;;
69030;SDS011;56083;48.774;8.942;2023-02-28T04:23:05;12.90;;;6.00;;
69030;SDS011;56083;48.774;8.942;2023-02-28T04:25:30;13.52;;;6.00;;
69030;SDS011;56083;48.774;8.942;2023-02-28T04:27:56;12.07;;;6.10;;
69030;SDS011;56083;48.774;8.942;2023-02-28T04:30:21;11.73;;;5.90;;
69030;SDS011;56083;48.774;8.942;2023-02-28T04:32:47;16.85;;;6.60;;
69030;SDS011;56083;48.774;8.942;2023-02-28T04:35:13;11.75;;;6.30;;
69030;SDS011;56083;48.774;8.942;2023-02-28T04:37:38;10.55;;;6.28;;
69030;SDS011;56083;48.774;8.942;2023-02-28T04:40:04;12.70;;;6.40;;
69030;SDS011;56083;48.774;8.942;2023-02-28T04:42:30;14.50;;;7.18;;
69030;SDS011;56083;48.774;8.942;2023-02-28T04:45:00;11.38;;;6.18;;
69030;SDS011;56083;48.774;8.942;2023-02-28T04:47:26;15.25;;;6.43;;
69030;SDS011;56083;48.774;8.942;2023-02-28T04:49:52;13.93;;;6.80;;
69030;SDS011;56083;48.774;8.942;2023-02-28T04:52:17;15.43;;;6.68;;
69030;SDS011;56083;48.774;8.942;2023-02-28T04:54:43;14.68;;;6.15;;
69030;SDS011;56083;48.774;8.942;2023-02-28T04:57:09;13.23;;;6.72;;
69030;SDS011;56083;48.774;8.942;2023-02-28T04:59:34;11.13;;;6.70;;
69030;SDS011;56083;48.774;8.942;2023-02-28T05:02:00;12.77;;;6.60;;
69030;SDS011;56083;48.774;8.942;2023-02-28T05:04:34;12.02;;;6.38;;
69030;SDS011;56083;48.774;8.942;2023-02-28T05:07:01;13.55;;;6.70;;
69030;SDS011;56083;48.774;8.942;2023-02-28T05:09:28;14.23;;;6.63;;
69030;SDS011;56083;48.774;8.942;2023-02-28T05:11:54;11.52;;;6.88;;
69030;SDS011;56083;48.774;8.942;2023-02-28T05:14:20;14.45;;;7.07;;
69030;SDS011;56083;48.774;8.942;2023-02-28T05:16:46;15.02;;;6.55;;
69030;SDS011;56083;48.774;8.942;2023-02-28T05:19:11;10.70;;;6.28;;
69030;SDS011;56083;48.774;8.942;2023-02-28T05:21:38;13.32;;;6.10;;
69030;SDS011;56083;48.774;8.942;2023-02-28T05:24:06;10.93;;;6.38;;
69030;SDS011;56083;48.774;8.942;2023-02-28T05:26:36;14.35;;;6.88;;
69030;SDS011;56083;48.774;8.942;2023-02-28T05:29:03;12.93;;;6.72;;
69030;SDS011;56083;48.774;8.942;2023-02-28T05:31:30;12.85;;;6.03;;
69030;SDS011;56083;48.774;8.942;2023-02-28T05:33:55;13.95;;;6.82;;
69030;SDS011;56083;48.774;8.942;2023-02-28T05:36:21;12.60;;;6.38;;
69030;SDS011;56083;48.774;8.942;2023-02-28T05:38:48;14.23;;;7.40;;
69030;SDS011;56083;48.774;8.942;2023-02-28T05:41:15;10.98;;;6.78;;
69030;SDS011;56083;48.774;8.942;2023-02-28T05:43:41;12.25;;;6.47;;
69030;SDS011;56083;48.774;8.942;2023-02-28T05:46:08;10.68;;;6.72;;
69030;SDS011;56083;48.774;8.942;2023-02-28T05:48:35;12.98;;;7.05;;
69030;SDS011;56083;48.774;8.942;2023-02-28T05:51:02;14.35;;;7.18;;
69030;SDS011;56083;48.774;8.942;2023-02-28T05:53:29;12.25;;;6.97;;
69030;SDS011;56083;48.774;8.942;2023-02-28T05:55:55;13.60;;;7.50;;
69030;SDS011;56083;48.774;8.942;2023-02-28T05:58:21;16.13;;;7.18;;
69030;SDS011;56083;48.774;8.942;2023-02-28T06:00:47;13.05;;;7.18;;
69030;SDS011;56083;48.774;8.942;2023-02-28T06:03:13;14.02;;;7.20;;
69030;SDS011;56083;48.774;8.942;2023-02-28T06:05:38;13.48;;;7.13;;
69030;SDS011;56083;48.774;8.942;2023-02-28T06:08:04;13.10;;;7.45;;
69030;SDS011;56083;48.774;8.942;2023-02-28T06:10:33;11.73;;;7.00;;
69030;SDS011;56083;48.774;8.942;2023-02-28T06:13:00;12.38;;;7.07;;
69030;SDS011;56083;48.774;8.942;2023-02-28T06:15:27;11.75;;;6.93;;
69030;SDS011;56083;48.774;8.942;2023-02-28T06:17:53;16.35;;;7.10;;
69030;SDS011;56083;48.774;8.942;2023-02-28T06:20:21;12.38;;;7.40;;
69030;SDS011;56083;48.774;8.942;2023-02-28T06:22:47;14.95;;;7.38;;
69030;SDS011;56083;48.774;8.942;2023-02-28T06:25:12;13.90;;;7.40;;
69030;SDS011;56083;48.774;8.942;2023-02-28T06:27:38;15.23;;;7.35;;
69030;SDS011;56083;48.774;8.942;2023-02-28T06:30:04;13.30;;;7.25;;
69030;SDS011;56083;48.774;8.942;2023-02-28T06:32:30;15.57;;;7.85;;
69030;SDS011;56083;48.774;8.942;2023-02-28T06:34:55;17.05;;;8.05;;
69030;SDS011;56083;48.774;8.942;2023-02-28T06:37:22;15.25;;;8.05;;
69030;SDS011;56083;48.774;8.942;2023-02-28T06:39:51;14.32;;;7.78;;
69030;SDS011;56083;48.774;8.942;2023-02-28T06:42:17;13.68;;;7.90;;
69030;SDS011;56083;48.774;8.942;2023-02-28T06:44:42;15.50;;;7.97;;
69030;SDS011;56083;48.774;8.942;2023-02-28T06:47:08;16.15;;;7.57;;
69030;SDS011;56083;48.774;8.942;2023-02-28T06:49:35;14.15;;;8.10;;
69030;SDS011;56083;48.774;8.942;2023-02-28T06:52:01;15.80;;;8.40;;
69030;SDS011;56083;48.774;8.942;2023-02-28T06:54:28;15.38;;;8.23;;
69030;SDS011;56083;48.774;8.942;2023-02-28T06:56:54;14.75;;;8.57;;
69030;SDS011;56083;48.774;8.942;2023-02-28T06:59:19;17.90;;;8.70;;
69030;SDS011;56083;48.774;8.942;2023-02-28T07:01:45;19.25;;;8.48;;
69030;SDS011;56083;48.774;8.942;2023-02-28T07:04:11;15.15;;;8.20;;
69030;SDS011;56083;48.774;8.942;2023-02-28T07:06:38;16.42;;;8.70;;
69030;SDS011;56083;48.774;8.942;2023-02-28T07:09:03;21.13;;;8.13;;
69030;SDS011;56083;48.774;8.942;2023-02-28T07:11:30;17.25;;;7.90;;
69030;SDS011;56083;48.774;8.942;2023-02-28T07:13:56;15.00;;;8.27;;
69030;SDS011;56083;48.774;8.942;2023-02-28T07:16:23;14.75;;;8.18;;
69030;SDS011;56083;48.774;8.942;2023-02-28T07:18:49;15.38;;;8.15;;
69030;SDS011;56083;48.774;8.942;2023-02-28T07:21:17;12.50;;;7.38;;
69030;SDS011;56083;48.774;8.942;2023-02-28T07:23:43;13.35;;;7.78;;
69030;SDS011;56083;48.774;8.942;2023-02-28T07:26:12;16.27;;;7.75;;
69030;SDS011;56083;48.774;8.942;2023-02-28T07:28:43;15.50;;;8.32;;
69030;SDS011;56083;48.774;8.942;2023-02-28T07:31:10;12.60;;;7.47;;
69030;SDS011;56083;48.774;8.942;2023-02-28T07:33:38;18.88;;;8.20;;
69030;SDS011;56083;48.774;8.942;2023-02-28T07:36:16;17.17;;;7.75;;
69030;SDS011;56083;48.774;8.942;2023-02-28T07:38:46;14.63;;;7.82;;
69030;SDS011;56083;48.774;8.942;2023-02-28T07:41:15;14.45;;;7.85;;
69030;SDS011;56083;48.774;8.942;2023-02-28T07:43:41;18.30;;;8.60;;
69030;SDS011;56083;48.774;8.942;2023-02-28T07:46:08;16.38;;;8.13;;
69030;SDS011;56083;48.774;8.942;2023-02-28T07:48:35;15.32;;;8.63;;
69030;SDS011;56083;48.774;8.942;2023-02-28T07:51:01;18.20;;;7.60;;
69030;SDS011;56083;48.774;8.942;2023-02-28T07:53:28;14.65;;;8.15;;
69030;SDS011;56083;48.774;8.942;2023-02-28T07:55:55;14.05;;;7.53;;
69030;SDS011;56083;48.774;8.942;2023-02-28T07:58:21;14.52;;;7.82;;
69030;SDS011;56083;48.774;8.942;2023-02-28T08:00:47;16.73;;;7.93;;
69030;SDS011;56083;48.774;8.942;2023-02-28T08:03:13;15.25;;;8.15;;
69030;SDS011;56083;48.774;8.942;2023-02-28T08:05:39;18.38;;;8.18;;
69030;SDS011;56083;48.774;8.942;2023-02-28T08:08:05;15.60;;;7.93;;
69030;SDS011;56083;48.774;8.942;2023-02-28T08:10:32;14.13;;;7.75;;
69030;SDS011;56083;48.774;8.942;2023-02-28T08:12:57;14.60;;;7.93;;
69030;SDS011;56083;48.774;8.942;2023-02-28T08:15:23;14.57;;;7.50;;
69030;SDS011;56083;48.774;8.942;2023-02-28T08:17:48;17.05;;;8.20;;
69030;SDS011;56083;48.774;8.942;2023-02-28T08:20:14;15.10;;;8.00;;
69030;SDS011;56083;48.774;8.942;2023-02-28T08:22:40;13.57;;;7.90;;
69030;SDS011;56083;48.774;8.942;2023-02-28T08:25:06;12.77;;;7.70;;
69030;SDS011;56083;48.774;8.942;2023-02-28T08:27:32;15.80;;;8.48;;
69030;SDS011;56083;48.774;8.942;2023-02-28T08:29:58;17.02;;;8.05;;
69030;SDS011;56083;48.774;8.942;2023-02-28T08:32:24;14.98;;;8.82;;
69030;SDS011;56083;48.774;8.942;2023-02-28T08:34:49;15.48;;;7.85;;
69030;SDS011;56083;48.774;8.942;2023-02-28T08:37:16;19.23;;;8.35;;
69030;SDS011;56083;48.774;8.942;2023-02-28T08:39:41;17.13;;;8.32;;
69030;SDS011;56083;48.774;8.942;2023-02-28T08:42:07;16.58;;;8.30;;
69030;SDS011;56083;48.774;8.942;2023-02-28T08:44:33;16.65;;;8.40;;
69030;SDS011;56083;48.774;8.942;2023-02-28T08:46:58;17.48;;;8.68;;
69030;SDS011;56083;48.774;8.942;2023-02-28T08:49:24;18.70;;;8.75;;
69030;SDS011;56083;48.774;8.942;2023-02-28T08:51:50;14.88;;;8.18;;
69030;SDS011;56083;48.774;8.942;2023-02-28T08:54:15;20.85;;;8.23;;
69030;SDS011;56083;48.774;8.942;2023-02-28T08:56:44;20.48;;;8.50;;
69030;SDS011;56083;48.774;8.942;2023-02-28T08:59:11;16.17;;;8.20;;
69030;SDS011;56083;48.774;8.942;2023-02-28T09:01:37;14.30;;;8.02;;
69030;SDS011;56083;48.774;8.942;2023-02-28T09:04:03;20.90;;;8.90;;
69030;SDS011;56083;48.774;8.942;2023-02-28T09:06:32;16.33;;;9.02;;
69030;SDS011;56083;48.774;8.942;2023-02-28T09:08:57;19.15;;;8.77;;
69030;SDS011;56083;48.774;8.942;2023-02-28T09:11:24;18.10;;;8.93;;
69030;SDS011;56083;48.774;8.942;2023-02-28T09:13:50;17.13;;;8.95;;
69030;SDS011;56083;48.774;8.942;2023-02-28T09:16:16;17.33;;;8.25;;
69030;SDS011;56083;48.774;8.942;2023-02-28T09:18:42;14.90;;;8.32;;
69030;SDS011;56083;48.774;8.942;2023-02-28T09:21:09;18.75;;;8.88;;
69030;SDS011;56083;48.774;8.942;2023-02-28T09:23:39;15.07;;;8.65;;
69030;SDS011;56083;48.774;8.942;2023-02-28T09:26:05;23.00;;;8.55;;
69030;SDS011;56083;48.774;8.942;2023-02-28T09:28:31;18.17;;;9.55;;
69030;SDS011;56083;48.774;8.942;2023-02-28T09:30:57;21.98;;;8.98;;
69030;SDS011;56083;48.774;8.942;2023-02-28T09:33:23;16.85;;;9.07;;
69030;SDS011;56083;48.774;8.942;2023-02-28T09:35:50;16.08;;;8.88;;
69030;SDS011;56083;48.774;8.942;2023-02-28T09:38:22;18.02;;;8.98;;
69030;SDS011;56083;48.774;8.942;2023-02-28T09:40:49;17.02;;;9.07;;
69030;SDS011;56083;48.774;8.942;2023-02-28T09:43:16;26.05;;;8.98;;
69030;SDS011;56083;48.774;8.942;2023-02-28T09:45:47;14.98;;;9.00;;
69030;SDS011;56083;48.774;8.942;2023-02-28T09:48:28;16.17;;;8.65;;
69030;SDS011;56083;48.774;8.942;2023-02-28T09:51:03;14.80;;;9.30;;
69030;SDS011;56083;48.774;8.942;2023-02-28T09:53:53;17.58;;;9.52;;
69030;SDS011;56083;48.774;8.942;2023-02-28T09:56:27;15.30;;;8.50;;
69030;SDS011;56083;48.774;8.942;2023-02-28T10:04:32;21.67;;;9.30;;
69030;SDS011;56083;48.774;8.942;2023-02-28T10:09:53;19.73;;;9.32;;
69030;SDS011;56083;48.774;8.942;2023-02-28T10:12:22;21.27;;;9.05;;
69030;SDS011;56083;48.774;8.942;2023-02-28T10:14:50;15.23;;;9.18;;
69030;SDS011;56083;48.774;8.942;2023-02-28T10:17:21;13.27;;;8.50;;
69030;SDS011;56083;48.774;8.942;2023-02-28T10:19:55;14.95;;;8.35;;
69030;SDS011;56083;48.774;8.942;2023-02-28T10:25:19;14.60;;;8.82;;
69030;SDS011;56083;48.774;8.942;2023-02-28T10:27:49;17.63;;;9.38;;
69030;SDS011;56083;48.774;8.942;2023-02-28T10:30:19;14.82;;;8.40;;
69030;SDS011;56083;48.774;8.942;2023-02-28T10:32:51;16.52;;;9.18;;
69030;SDS011;56083;48.774;8.942;2023-02-28T10:35:22;13.73;;;8.45;;
69030;SDS011;56083;48.774;8.942;2023-02-28T10:45:24;16.80;;;8.90;;
69030;SDS011;56083;48.774;8.942;2023-02-28T10:47:55;17.15;;;9.48;;
69030;SDS011;56083;48.774;8.942;2023-02-28T10:50:36;15.82;;;9.13;;
69030;SDS011;56083;48.774;8.942;2023-02-28T10:56:01;17.77;;;9.07;;
69030;SDS011;56083;48.774;8.942;2023-02-28T10:58:49;15.07;;;9.05;;
69030;SDS011;56083;48.774;8.942;2023-02-28T11:03:55;16.58;;;8.98;;
69030;SDS011;56083;48.774;8.942;2023-02-28T11:06:25;16.75;;;8.85;;
69030;SDS011;56083;48.774;8.942;2023-02-28T11:08:59;17.27;;;9.07;;
69030;SDS011;56083;48.774;8.942;2023-02-28T11:11:28;18.38;;;9.00;;
69030;SDS011;56083;48.774;8.942;2023-02-28T11:13:57;16.02;;;8.93;;
69030;SDS011;56083;48.774;8.942;2023-02-28T11:16:33;14.38;;;8.32;;
69030;SDS011;56083;48.774;8.942;2023-02-28T11:19:01;14.45;;;8.20;;
69030;SDS011;56083;48.774;8.942;2023-02-28T11:24:21;13.23;;;7.60;;
69030;SDS011;56083;48.774;8.942;2023-02-28T11:26:55;12.52;;;7.43;;
69030;SDS011;56083;48.774;8.942;2023-02-28T11:34:34;11.52;;;7.32;;
69030;SDS011;56083;48.774;8.942;2023-02-28T11:37:01;10.85;;;6.65;;
69030;SDS011;56083;48.774;8.942;2023-02-28T11:39:30;11.13;;;7.43;;
69030;SDS011;56083;48.774;8.942;2023-02-28T11:47:56;9.75;;;7.03;;
69030;SDS011;56083;48.774;8.942;2023-02-28T11:55:48;9.32;;;6.43;;
69030;SDS011;56083;48.774;8.942;2023-02-28T12:01:20;10.70;;;7.10;;
69030;SDS011;56083;48.774;8.942;2023-02-28T12:04:21;12.13;;;7.10;;
69030;SDS011;56083;48.774;8.942;2023-02-28T12:07:11;9.05;;;6.43;;
69030;SDS011;56083;48.774;8.942;2023-02-28T12:10:15;8.48;;;6.43;;
69030;SDS011;56083;48.774;8.942;2023-02-28T12:20:46;11.15;;;7.22;;
69030;SDS011;56083;48.774;8.942;2023-02-28T12:28:38;11.57;;;6.97;;
69030;SDS011;56083;48.774;8.942;2023-02-28T12:31:16;9.63;;;6.70;;
69030;SDS011;56083;48.774;8.942;2023-02-28T12:33:51;10.98;;;7.20;;
69030;SDS011;56083;48.774;8.942;2023-02-28T12:36:20;11.15;;;6.95;;
69030;SDS011;56083;48.774;8.942;2023-02-28T12:38:50;12.88;;;6.88;;
69030;SDS011;56083;48.774;8.942;2023-02-28T12:41:27;10.57;;;6.60;;
69030;SDS011;56083;48.774;8.942;2023-02-28T12:44:43;9.98;;;6.97;;
69030;SDS011;56083;48.774;8.942;2023-02-28T12:47:18;13.02;;;7.03;;
69030;SDS011;56083;48.774;8.942;2023-02-28T12:49:49;9.30;;;6.05;;
69030;SDS011;56083;48.774;8.942;2023-02-28T12:55:04;10.18;;;6.60;;
69030;SDS011;56083;48.774;8.942;2023-02-28T12:57:58;9.38;;;7.00;;
69030;SDS011;56083;48.774;8.942;2023-02-28T13:00:47;12.50;;;7.18;;
69030;SDS011;56083;48.774;8.942;2023-02-28T13:03:41;11.27;;;6.45;;
69030;SDS011;56083;48.774;8.942;2023-02-28T13:06:15;10.45;;;6.60;;
69030;SDS011;56083;48.774;8.942;2023-02-28T13:14:05;9.13;;;6.47;;
69030;SDS011;56083;48.774;8.942;2023-02-28T13:17:02;10.93;;;6.82;;
69030;SDS011;56083;48.774;8.942;2023-02-28T13:19:45;12.20;;;6.35;;
69030;SDS011;56083;48.774;8.942;2023-02-28T13:22:20;9.75;;;6.68;;
69030;SDS011;56083;48.774;8.942;2023-02-28T13:25:03;9.30;;;6.88;;
69030;SDS011;56083;48.774;8.942;2023-02-28T13:27:55;9.68;;;6.13;;
69030;SDS011;56083;48.774;8.942;2023-02-28T13:33:33;16.80;;;9.55;;
69030;SDS011;56083;48.774;8.942;2023-02-28T13:46:34;12.65;;;8.10;;
69030;SDS011;56083;48.774;8.942;2023-02-28T13:54:30;12.60;;;7.35;;
69030;SDS011;56083;48.774;8.942;2023-02-28T14:00:16;10.50;;;6.72;;
69030;SDS011;56083;48.774;8.942;2023-02-28T14:08:34;11.68;;;7.15;;
69030;SDS011;56083;48.774;8.942;2023-02-28T14:11:05;10.45;;;6.88;;
69030;SDS011;56083;48.774;8.942;2023-02-28T14:16:09;9.32;;;6.53;;
69030;SDS011;56083;48.774;8.942;2023-02-28T14:18:40;12.13;;;7.53;;
69030;SDS011;56083;48.774;8.942;2023-02-28T14:21:13;12.98;;;6.78;;
69030;SDS011;56083;48.774;8.942;2023-02-28T14:32:34;11.40;;;7.07;;
69030;SDS011;56083;48.774;8.942;2023-02-28T14:37:52;14.82;;;7.63;;
69030;SDS011;56083;48.774;8.942;2023-02-28T14:40:21;9.77;;;6.60;;
69030;SDS011;56083;48.774;8.942;2023-02-28T14:43:01;10.18;;;7.45;;
69030;SDS011;56083;48.774;8.942;2023-02-28T14:45:29;13.20;;;8.75;;
69030;SDS011;56083;48.774;8.942;2023-02-28T14:47:56;14.00;;;9.98;;
69030;SDS011;56083;48.774;8.942;2023-02-28T14:50:24;8.82;;;6.97;;
69030;SDS011;56083;48.774;8.942;2023-02-28T14:52:56;10.40;;;7.00;;
69030;SDS011;56083;48.774;8.942;2023-02-28T14:55:29;13.43;;;7.57;;
69030;SDS011;56083;48.774;8.942;2023-02-28T14:57:59;10.20;;;7.07;;
69030;SDS011;56083;48.774;8.942;2023-02-28T15:00:35;12.32;;;8.30;;
69030;SDS011;56083;48.774;8.942;2023-02-28T15:03:18;13.02;;;7.13;;
69030;SDS011;56083;48.774;8.942;2023-02-28T15:05:53;10.63;;;7.25;;
69030;SDS011;56083;48.774;8.942;2023-02-28T15:08:20;16.10;;;7.72;;
69030;SDS011;56083;48.774;8.942;2023-02-28T15:10:57;15.43;;;7.20;;
69030;SDS011;56083;48.774;8.942;2023-02-28T15:16:29;15.05;;;8.57;;
69030;SDS011;56083;48.774;8.942;2023-02-28T15:19:18;16.30;;;7.93;;
69030;SDS011;56083;48.774;8.942;2023-02-28T15:21:48;12.02;;;7.07;;
69030;SDS011;56083;48.774;8.942;2023-02-28T15:24:21;15.25;;;7.80;;
69030;SDS011;56083;48.774;8.942;2023-02-28T15:26:56;12.60;;;7.82;;
69030;SDS011;56083;48.774;8.942;2023-02-28T15:29:24;11.20;;;7.85;;
69030;SDS011;56083;48.774;8.942;2023-02-28T15:31:56;11.52;;;7.85;;
69030;SDS011;56083;48.774;8.942;2023-02-28T15:34:36;12.32;;;8.07;;
69030;SDS011;56083;48.774;8.942;2023-02-28T15:39:53;12.07;;;7.90;;
69030;SDS011;56083;48.774;8.942;2023-02-28T15:42:22;13.85;;;8.05;;
69030;SDS011;56083;48.774;8.942;2023-02-28T15:44:52;13.27;;;7.63;;
69030;SDS011;56083;48.774;8.942;2023-02-28T15:47:24;12.15;;;8.25;;
69030;SDS011;56083;48.774;8.942;2023-02-28T15:49:53;13.52;;;7.90;;
69030;SDS011;56083;48.774;8.942;2023-02-28T15:52:29;12.20;;;8.13;;
69030;SDS011;56083;48.774;8.942;2023-02-28T15:55:11;14.25;;;8.52;;
69030;SDS011;56083;48.774;8.942;2023-02-28T15:57:53;12.35;;;7.70;;
69030;SDS011;56083;48.774;8.942;2023-02-28T16:00:24;14.73;;;8.43;;
69030;SDS011;56083;48.774;8.942;2023-02-28T16:02:50;14.13;;;8.02;;
69030;SDS011;56083;48.774;8.942;2023-02-28T16:05:18;12.38;;;8.00;;
69030;SDS011;56083;48.774;8.942;2023-02-28T16:07:45;12.30;;;8.20;;
69030;SDS011;56083;48.774;8.942;2023-02-28T16:10:13;17.58;;;8.30;;
69030;SDS011;56083;48.774;8.942;2023-02-28T16:12:39;12.43;;;8.43;;
69030;SDS011;56083;48.774;8.942;2023-02-28T16:15:07;14.07;;;8.00;;
69030;SDS011;56083;48.774;8.942;2023-02-28T16:17:41;15.48;;;8.40;;
69030;SDS011;56083;48.774;8.942;2023-02-28T16:20:16;17.08;;;8.95;;
69030;SDS011;56083;48.774;8.942;2023-02-28T16:22:42;19.52;;;8.57;;
69030;SDS011;56083;48.774;8.942;2023-02-28T16:25:12;14.50;;;9.43;;
69030;SDS011;56083;48.774;8.942;2023-02-28T16:27:38;17.20;;;9.52;;
69030;SDS011;56083;48.774;8.942;2023-02-28T16:30:05;14.73;;;9.32;;
69030;SDS011;56083;48.774;8.942;2023-02-28T16:32:32;15.13;;;9.50;;
69030;SDS011;56083;48.774;8.942;2023-02-28T16:35:00;15.18;;;9.48;;
69030;SDS011;56083;48.774;8.942;2023-02-28T16:37:26;15.82;;;9.52;;
69030;SDS011;56083;48.774;8.942;2023-02-28T16:39:52;13.98;;;9.45;;
69030;SDS011;56083;48.774;8.942;2023-02-28T16:42:25;15.05;;;9.38;;
69030;SDS011;56083;48.774;8.942;2023-02-28T16:44:53;17.13;;;9.43;;
69030;SDS011;56083;48.774;8.942;2023-02-28T16:47:20;19.00;;;10.10;;
69030;SDS011;56083;48.774;8.942;2023-02-28T16:49:46;16.60;;;9.27;;
69030;SDS011;56083;48.774;8.942;2023-02-28T16:52:12;16.95;;;9.75;;
69030;SDS011;56083;48.774;8.942;2023-02-28T16:54:39;17.73;;;10.07;;
69030;SDS011;56083;48.774;8.942;2023-02-28T16:57:06;17.27;;;10.00;;
69030;SDS011;56083;48.774;8.942;2023-02-28T16:59:38;14.98;;;9.52;;
69030;SDS011;56083;48.774;8.942;2023-02-28T17:02:08;16.65;;;9.82;;
69030;SDS011;56083;48.774;8.942;2023-02-28T17:04:37;16.27;;;10.10;;
69030;SDS011;56083;48.774;8.942;2023-02-28T17:07:03;19.25;;;11.15;;
69030;SDS011;56083;48.774;8.942;2023-02-28T17:09:28;22.02;;;10.73;;
69030;SDS011;56083;48.774;8.942;2023-02-28T17:11:54;17.83;;;10.65;;
69030;SDS011;56083;48.774;8.942;2023-02-28T17:14:21;24.08;;;12.13;;
69030;SDS011;56083;48.774;8.942;2023-02-28T17:16:48;26.23;;;12.40;;
69030;SDS011;56083;48.774;8.942;2023-02-28T17:19:14;27.15;;;12.82;;
69030;SDS011;56083;48.774;8.942;2023-02-28T17:21:42;28.73;;;14.05;;